Scallorn, Texas
Current Conditions -  °F | °C
As of 10:35 AM on Monday 24 Nov 2014 (Local Time) from KLZZ Reporting Station
Clear Clear  
Wind Chill: 55°   Ceiling: Unl
Heat Index: 55°   Visibility: 10mi
Dew Point: 34°   Wind: 3mph
Humidity: 45%   Direction: 320°NW
Pressure: 30.1"   Gusts: NA
Location:  31.2111°N, 98.4001°W
Report Text: KLZZ 241635Z AUTO 32003KT 10SM CLR 13/01 A3010 RMK AO2 T01280010
Loading
Personal Weather Stations






























Interactive Weather Map New forecast layout! Learn more

10-Day Weather Forecast

Advertisements
Track Severe Weather on mobile